DATE METEO

IERI
Time Temp. Dewp. Hum. Bar. 1h Prec. 24h Prec.
00:09 5.5 0.5 70 1017.4 0.0000 0.0000
00:19 5.5 0.5 70 1017.4 0.0000 0.0000
00:29 5.5 0.9 72 1017.3 0.0000 0.0000
00:39 5.3 0.9 73 1017.4 0.0000 0.0000
00:49 5.2 1.1 75 1017.4 0.0000 0.0000
00:59 5 1.3 77 1017.3 0.0000 0.0000
01:09 4.8 1.1 77 1016.9 0.0000 0.0000
01:19 4.7 1 77 1016.8 0.0000 0.0000
01:30 4.6 0.9 77 1016.7 0.0000 0.0000
01:40 4.6 1.1 78 1016.7 0.0000 0.0000
01:49 4.6 1.1 78 1016.5 0.0000 0.0000
02:00 4.5 1.2 79 1016.3 0.0000 0.0000
02:10 4.4 1.3 80 1016.3 0.0000 0.0000
02:20 4.3 1.2 80 1016.2 0.1010 0.1000
02:23 4.3 1.3 81 1016.2 0.1010 0.1000
02:33 4.2 1.4 82 1016.2 0.1010 0.1000
02:43 4.1 1.5 83 1016 0.1010 0.1000
02:59 4 1.7 85 1015.9 0.3030 0.3000
03:10 3.8 1.7 86 1015.7 0.4040 0.4000
03:20 3.8 1.7 86 1015.6 0.4040 0.5000
03:30 3.7 1.7 87 1015.5 0.6060 0.7000
03:40 3.6 1.8 88 1015.4 0.7070 0.8000
03:50 3.5 1.7 88 1015.4 0.7070 0.9000
04:00 3.5 1.7 88 1015.4 0.8080 1.1000
04:10 3.4 1.8 89 1015.2 0.8080 1.2000
04:21 3.4 1.8 89 1015.2 0.9090 1.4000
04:31 3.4 1.9 90 1015 0.8080 1.5000
04:41 3.4 1.9 90 1015.1 0.9090 1.7000
04:50 3.4 2.1 91 1015.1 0.9090 1.8000
05:01 3.5 2.2 91 1015.1 1.0100 2.1000
05:11 3.5 2.2 91 1015 1.1110 2.3000
05:21 3.5 2.3 92 1015.2 1.2120 2.6000
05:31 3.5 2.3 92 1015.2 1.1110 2.8000
05:42 3.5 2.3 92 1015.2 1.2120 3.0000
05:51 3.5 2.3 92 1015.2 1.2120 3.3000
06:01 3.5 2.3 92 1015.3 1.4140 3.7000
06:12 3.5 2.5 93 1015.3 1.4140 4.0000
06:22 3.5 2.5 93 1015.2 1.4140 4.2000
06:32 3.4 2.4 93 1015.3 1.4140 4.4000
06:42 3.4 2.4 93 1015.1 1.3130 4.6000
06:52 3.4 2.4 93 1015.2 1.2120 4.7000
07:02 3.4 2.4 93 1015.2 1.0100 4.8000
07:12 3.5 2.6 94 1015.1 0.8080 4.9000
07:23 3.5 2.6 94 1015 0.6060 5.1000
07:33 3.6 2.7 94 1014.9 0.5050 5.1000
07:43 3.6 2.7 94 1014.9 0.4040 5.1000
07:52 3.7 2.8 94 1014.9 0.3030 5.1000
08:03 3.8 2.9 94 1015 0.3030 5.2000
08:13 3.8 2.9 94 1015.1 0.2020 5.2000
08:23 3.9 3 94 1015 0.1010 5.2000
08:33 3.9 3 94 1015 0.2020 5.3000
08:44 4 3.1 94 1015.1 0.2020 5.3000
08:54 4 3.1 94 1015 0.2020 5.3000
09:03 4 3.1 94 1015 0.1010 5.3000
09:14 4.1 3.2 94 1014.9 0.2020 5.4000
09:24 4.2 3.3 94 1014.8 0.1010 5.4000
09:34 4.4 3.5 94 1014.8 0.2020 5.5000
09:44 4.5 3.6 94 1014.7 0.2020 5.5000
09:54 4.7 3.8 94 1014.7 0.3030 5.6000
10:04 4.9 3.9 93 1014.6 0.2020 5.6000
10:14 5.1 4.1 93 1014.5 0.2020 5.6000
10:25 5.3 4.3 93 1014.5 0.1010 5.6000
10:35 5.3 4.3 93 1014.4 0.2020 5.7000
10:45 5.6 4.6 93 1014.3 0.2020 5.7000
10:54 6 5 93 1014.2 0.1010 5.7000
11:05 6.3 5.1 92 1014.1 0.1010 5.7000
11:15 6.6 5.2 91 1013.9 0.1010 5.7000
11:25 6.8 5.3 90 1013.8 0.0000 5.7000
11:35 6.9 5.2 89 1013.7 0.0000 5.7000
11:46 7.1 5.4 89 1013.7 0.0000 5.7000
11:56 7.2 5.3 88 1013.6 0.0000 5.7000
12:05 7.2 5.2 87 1013.5 0.1010 5.8000
12:16 7.3 5.3 87 1013.3 0.1010 5.8000
12:26 7.4 5.4 87 1013.1 0.1010 5.8000
12:36 7.7 5.5 86 1013 0.1010 5.8000
12:46 8 5.8 86 1012.7 0.1010 5.8000
12:57 7.8 5.4 85 1012.7 0.0000 5.8000
13:06 7.5 5.1 85 1012.6 0.0000 5.8000
13:16 7.3 4.9 85 1012.5 0.0000 5.8000
13:27 7.1 4.8 85 1012.5 0.0000 5.8000
13:37 7 4.8 86 1012.5 0.0000 5.8000
13:47 7.1 5.1 87 1012.5 0.2020 6.0000
13:54 7.1 5.1 87 1012.5 0.3030 6.1000
14:03 7.2 5 86 1012.5 0.4040 6.2000
14:14 7.1 4.9 86 1012.4 0.5050 6.3000
14:24 6.9 4.7 86 1012.2 0.6060 6.4000
14:34 6.8 4.6 86 1012.2 0.7070 6.5000
14:44 6.6 4.6 87 1012.1 0.5050 6.5000
14:55 6.5 4.3 86 1012 0.6060 6.7000
15:04 6.6 4.4 86 1011.9 0.6060 6.8000
15:14 6.6 4.6 87 1011.8 0.6060 7.0000
15:24 6.6 4.6 87 1011.6 0.7070 7.1000
15:35 6.5 4.3 86 1011.6 0.7070 7.2000
15:45 6.3 4.1 86 1011.3 0.6060 7.2000
15:55 6.2 4.2 87 1011.3 0.5050 7.2000
16:05 6.1 4.1 87 1011.2 0.4040 7.3000
16:14 6 4 87 1011.1 0.2020 7.3000
16:24 6 4 87 1011 0.3030 7.4000
16:35 6 4 87 1011 0.4040 7.6000
16:46 6 4 87 1010.8 0.5050 7.7000
16:56 5.9 3.9 87 1010.8 0.6060 7.8000
17:05 5.9 4.1 88 1010.8 0.5050 7.8000
17:16 5.8 4 88 1010.7 0.6060 8.0000
17:26 5.7 4 89 1010.5 0.6060 8.1000
17:36 5.7 4 89 1010.5 0.5050 8.1000
17:46 5.5 3.8 89 1010.5 0.5050 8.2000
17:57 5.4 3.9 90 1010.4 0.5050 8.3000
18:06 5.4 3.9 90 1010.3 0.5050 8.4000
18:16 5.3 4 91 1010.1 0.4040 8.4000
18:26 5.2 3.9 91 1010.1 0.3030 8.4000
18:37 5.1 3.8 91 1010 0.3030 8.4000
18:47 5 3.7 91 1009.9 0.1010 8.4000
18:57 5 3.8 92 1009.9 0.0000 8.4000
19:07 5 3.8 92 1009.9 0.0000 8.4000
19:18 5 3.8 92 1009.9 0.0000 8.4000
19:28 5 3.8 92 1009.9 0.0000 8.4000
19:37 4.9 3.7 92 1009.8 0.0000 8.4000
19:48 4.9 3.7 92 1009.8 0.0000 8.4000
19:58 4.8 3.6 92 1009.7 0.0000 8.4000
20:08 4.8 3.8 93 1009.7 0.0000 8.4000
20:18 4.7 3.7 93 1009.6 0.0000 8.4000
20:29 4.7 3.7 93 1009.6 0.0000 8.4000
20:38 4.7 3.7 93 1009.6 0.0000 8.4000
20:48 4.8 3.9 94 1009.5 0.0000 8.4000
20:59 4.8 3.9 94 1009.4 0.0000 8.4000
21:09 4.8 3.9 94 1009.5 0.0000 8.4000
21:19 4.8 3.9 94 1009.4 0.0000 8.4000
21:29 4.8 3.9 94 1009.3 0.0000 8.4000
21:39 4.8 3.9 94 1009.1 0.0000 8.4000
21:49 4.8 4.1 95 1009.1 0.0000 8.4000
21:59 4.8 4.1 95 1008.9 0.0000 8.4000
22:09 4.8 4.1 95 1008.7 0.0000 8.4000
22:20 4.8 4.1 95 1008.6 0.0000 8.4000
22:30 4.8 4.1 95 1008.4 0.0000 8.4000
22:39 4.8 4.1 95 1008.2 0.0000 8.4000
22:50 4.8 4.1 95 1008.2 0.0000 8.4000
23:00 4.8 4.2 96 1008.2 0.0000 8.4000
23:10 4.8 4.2 96 1008.1 0.0000 8.4000
23:20 4.9 4.3 96 1008 0.0000 8.4000
23:31 4.9 4.3 96 1008 0.0000 8.4000
23:40 4.9 4.3 96 1007.8 0.0000 8.4000
23:50 4.9 4.3 96 1007.8 0.0000 8.4000

STATISTICILE ZILEI

2024-04-23
TEMPERATURA
MEDIA
5.1
MAXIM
8.0
12:46
MINIM
3.4
04:10
PRESIUNEA
MEDIA
1012.9
MAXIM
1017.4
00:09
MINIM
1007.8
23:40
PUNCTUL DE ROUĂ
MEDIA
3.4
MAXIM
5.8
12:46
MINIM
0.5
00:09
UMIDITATEA
MEDIA
89
MAXIM
96
23:00
MINIM
70
00:09
PRECIPITATION
RAIN HOUR
1.4
RAIN DAY
8.4
TEMPERATURA (°C)
MINIM
3.4
MAXIM
8.0
MEDIA
5.1
PRESIUNEA (hpa)
MINIM
1007.8
MAXIM
1017.4
MEDIA
1012.9
STATIA METEO